Time;durP1;ratioP1;P1;durP2;ratioP2;P2;SDS_P1;SDS_P2;PMS_P1;PMS_P2;Temp;Humidity;BMP_temperature;BMP_pressure;BME280_temperature;BME280_humidity;BME280_pressure;Samples;Min_cycle;Max_cycle;Signal;HPM_P1;HPM_P2
2022/07/23 00:00:09;;;;;;;6.88;3.60;;;;;;;;;;5002742;28;20057;-62
2022/07/23 00:02:38;;;;;;;6.38;3.75;;;;;;;;;;5023473;28;20511;-63
2022/07/23 00:05:05;;;;;;;8.52;3.88;;;;;;;;;;5019854;28;20615;-63
2022/07/23 00:07:33;;;;;;;7.85;4.15;;;;;;;;;;5028496;28;20056;-62
2022/07/23 00:10:00;;;;;;;7.65;3.50;;;;;;;;;;5024730;28;20436;-62
2022/07/23 00:12:27;;;;;;;6.68;3.88;;;;;;;;;;5028312;28;20065;-62
2022/07/23 00:14:54;;;;;;;6.78;4.05;;;;;;;;;;5024127;28;20053;-62
2022/07/23 00:17:22;;;;;;;12.20;3.67;;;;;;;;;;5022154;28;20052;-62
2022/07/23 00:19:50;;;;;;;9.25;3.88;;;;;;;;;;5022588;28;20057;-62
2022/07/23 00:22:17;;;;;;;6.95;3.95;;;;;;;;;;5021976;28;20409;-62
2022/07/23 00:24:45;;;;;;;9.77;5.18;;;;;;;;;;5023940;28;20049;-62
2022/07/23 00:27:12;;;;;;;5.25;4.03;;;;;;;;;;5020392;28;20053;-62
2022/07/23 00:29:39;;;;;;;9.20;4.15;;;;;;;;;;5022807;28;20205;-62
2022/07/23 00:32:07;;;;;;;8.75;4.30;;;;;;;;;;5004511;28;20049;-62
2022/07/23 00:34:34;;;;;;;8.63;4.03;;;;;;;;;;5004974;28;20058;-62
2022/07/23 00:37:02;;;;;;;6.40;4.82;;;;;;;;;;5018871;28;20168;-62
2022/07/23 00:39:29;;;;;;;9.07;4.32;;;;;;;;;;5024298;28;20052;-62
2022/07/23 00:41:57;;;;;;;8.80;4.38;;;;;;;;;;5021942;28;20050;-62
2022/07/23 00:44:24;;;;;;;9.02;4.43;;;;;;;;;;5020783;28;20053;-62
2022/07/23 00:46:53;;;;;;;7.10;4.43;;;;;;;;;;5026089;28;20543;-62
2022/07/23 00:49:21;;;;;;;8.95;4.55;;;;;;;;;;5026702;28;20139;-62
2022/07/23 00:51:48;;;;;;;8.18;4.75;;;;;;;;;;5019222;28;20088;-62
2022/07/23 00:54:17;;;;;;;8.90;4.55;;;;;;;;;;5019207;28;20053;-62
2022/07/23 00:56:45;;;;;;;7.65;4.55;;;;;;;;;;5022012;28;20049;-62
2022/07/23 00:59:12;;;;;;;9.32;4.80;;;;;;;;;;5023063;28;20045;-62
2022/07/23 01:01:39;;;;;;;7.53;5.05;;;;;;;;;;5018525;28;20496;-62
2022/07/23 01:04:07;;;;;;;10.30;4.95;;;;;;;;;;5000957;28;20057;-62
2022/07/23 01:06:36;;;;;;;10.02;5.78;;;;;;;;;;4997267;28;20050;-62
2022/07/23 01:09:04;;;;;;;9.60;5.07;;;;;;;;;;5015837;28;20446;-62
2022/07/23 01:11:33;;;;;;;7.28;5.07;;;;;;;;;;5019984;28;20042;-63
2022/07/23 01:14:00;;;;;;;10.93;5.30;;;;;;;;;;5016119;28;20057;-62
2022/07/23 01:16:27;;;;;;;12.52;5.90;;;;;;;;;;5021626;28;20041;-62
2022/07/23 01:18:54;;;;;;;12.50;5.75;;;;;;;;;;5001193;28;20060;-62
2022/07/23 01:21:22;;;;;;;10.38;5.70;;;;;;;;;;5023921;28;20053;-63
2022/07/23 01:23:50;;;;;;;12.43;5.93;;;;;;;;;;5020141;28;20060;-62
2022/07/23 01:26:18;;;;;;;9.35;5.13;;;;;;;;;;5027724;28;20049;-62
2022/07/23 01:28:45;;;;;;;8.80;5.13;;;;;;;;;;5022465;28;20057;-62
2022/07/23 01:31:12;;;;;;;8.50;5.07;;;;;;;;;;5021934;28;20119;-62
2022/07/23 01:33:39;;;;;;;7.85;5.13;;;;;;;;;;5022022;28;20129;-62
2022/07/23 01:36:07;;;;;;;9.85;5.00;;;;;;;;;;5026202;28;20096;-62
2022/07/23 01:38:34;;;;;;;6.00;5.03;;;;;;;;;;5021443;28;20053;-63
2022/07/23 01:41:03;;;;;;;8.63;5.50;;;;;;;;;;5019929;28;20099;-62
2022/07/23 01:43:30;;;;;;;9.30;4.80;;;;;;;;;;5022929;28;20116;-63
2022/07/23 01:45:57;;;;;;;10.77;5.00;;;;;;;;;;5020106;28;20045;-62
2022/07/23 01:48:24;;;;;;;12.20;5.38;;;;;;;;;;5019965;28;20064;-63
2022/07/23 01:50:52;;;;;;;10.73;5.28;;;;;;;;;;5025992;28;20068;-62
2022/07/23 01:53:19;;;;;;;7.15;5.05;;;;;;;;;;5018285;28;20129;-63
2022/07/23 01:55:46;;;;;;;8.77;4.82;;;;;;;;;;5026659;28;20049;-62
2022/07/23 01:58:15;;;;;;;15.77;5.38;;;;;;;;;;5027366;28;20045;-62
2022/07/23 02:00:42;;;;;;;7.47;4.43;;;;;;;;;;5026439;28;20558;-62
2022/07/23 02:03:09;;;;;;;10.77;5.50;;;;;;;;;;5027123;28;20052;-62
2022/07/23 02:05:36;;;;;;;7.13;4.72;;;;;;;;;;5023208;28;20107;-62
2022/07/23 02:08:04;;;;;;;9.80;5.30;;;;;;;;;;5004381;28;20061;-62
2022/07/23 02:10:31;;;;;;;8.80;4.97;;;;;;;;;;5020834;28;20060;-62
2022/07/23 02:12:58;;;;;;;7.72;4.88;;;;;;;;;;5004213;28;20057;-62
2022/07/23 02:15:28;;;;;;;10.73;5.10;;;;;;;;;;4999667;28;20054;-62
2022/07/23 02:17:55;;;;;;;8.50;4.70;;;;;;;;;;5004108;28;20053;-63
2022/07/23 02:20:23;;;;;;;8.10;5.10;;;;;;;;;;5018569;28;20099;-62
2022/07/23 02:22:50;;;;;;;10.57;5.00;;;;;;;;;;5025712;28;20386;-62
2022/07/23 02:25:17;;;;;;;7.25;4.53;;;;;;;;;;5021896;28;20057;-62
2022/07/23 02:27:44;;;;;;;8.23;4.53;;;;;;;;;;5024054;28;20045;-62
2022/07/23 02:30:12;;;;;;;11.23;5.47;;;;;;;;;;5020341;28;20072;-62
2022/07/23 02:32:40;;;;;;;11.45;5.35;;;;;;;;;;5025188;28;20439;-62
2022/07/23 02:35:08;;;;;;;8.15;5.10;;;;;;;;;;5017000;28;20104;-63
2022/07/23 02:37:35;;;;;;;7.28;5.40;;;;;;;;;;5005026;28;20057;-62
2022/07/23 02:40:02;;;;;;;12.32;5.30;;;;;;;;;;5019976;28;20842;-62
2022/07/23 02:42:30;;;;;;;8.68;5.63;;;;;;;;;;5022555;28;20168;-62
2022/07/23 02:44:57;;;;;;;12.40;5.97;;;;;;;;;;5025149;28;20119;-62
2022/07/23 02:47:24;;;;;;;10.02;5.15;;;;;;;;;;5025048;28;20488;-62
2022/07/23 02:49:52;;;;;;;10.13;5.07;;;;;;;;;;5021260;28;20131;-62
2022/07/23 02:52:20;;;;;;;9.75;5.43;;;;;;;;;;5016718;28;20496;-63
2022/07/23 02:54:47;;;;;;;8.07;5.40;;;;;;;;;;5022609;28;20045;-62
2022/07/23 02:57:14;;;;;;;9.95;5.57;;;;;;;;;;5021790;28;20110;-62
2022/07/23 02:59:41;;;;;;;10.15;5.32;;;;;;;;;;5001778;28;20159;-62
2022/07/23 03:02:09;;;;;;;8.13;5.53;;;;;;;;;;5010821;28;20434;-63
2022/07/23 03:04:36;;;;;;;10.82;5.55;;;;;;;;;;5024145;28;20052;-62
2022/07/23 03:07:04;;;;;;;7.72;5.25;;;;;;;;;;5015249;28;20065;-62
2022/07/23 03:09:32;;;;;;;10.70;5.40;;;;;;;;;;5016873;28;20049;-62
2022/07/23 03:11:59;;;;;;;12.35;5.68;;;;;;;;;;5021714;28;20551;-62
2022/07/23 03:14:27;;;;;;;8.63;5.57;;;;;;;;;;5002650;28;20045;-62
2022/07/23 03:16:54;;;;;;;12.85;5.80;;;;;;;;;;5011541;28;20061;-63
2022/07/23 03:19:22;;;;;;;8.63;5.03;;;;;;;;;;5014458;28;20433;-62
2022/07/23 03:21:49;;;;;;;7.88;4.60;;;;;;;;;;5018824;28;20057;-62
2022/07/23 03:24:18;;;;;;;11.52;4.55;;;;;;;;;;5014172;28;20069;-62
2022/07/23 03:26:45;;;;;;;9.88;4.43;;;;;;;;;;5022582;28;20134;-62
2022/07/23 03:29:12;;;;;;;6.82;4.88;;;;;;;;;;5012303;28;20088;-63
2022/07/23 03:31:40;;;;;;;9.68;5.00;;;;;;;;;;5014532;28;20432;-62
2022/07/23 03:34:07;;;;;;;10.13;4.72;;;;;;;;;;5016097;28;20057;-62
2022/07/23 03:36:34;;;;;;;8.65;4.85;;;;;;;;;;5021598;28;20061;-62
2022/07/23 03:39:01;;;;;;;11.80;4.88;;;;;;;;;;5020291;28;20856;-63
2022/07/23 03:41:30;;;;;;;11.27;4.82;;;;;;;;;;5020822;28;20052;-62
2022/07/23 03:43:57;;;;;;;8.38;4.75;;;;;;;;;;5014919;28;20053;-62
2022/07/23 03:46:24;;;;;;;7.93;4.65;;;;;;;;;;4999715;28;20103;-63
2022/07/23 03:48:51;;;;;;;9.38;4.70;;;;;;;;;;5022645;28;20061;-62
2022/07/23 03:51:20;;;;;;;9.20;4.45;;;;;;;;;;5021099;28;20497;-62
2022/07/23 03:53:48;;;;;;;8.40;4.30;;;;;;;;;;5022526;28;20079;-62
2022/07/23 03:56:16;;;;;;;6.10;4.20;;;;;;;;;;5023922;28;20076;-62
2022/07/23 03:58:44;;;;;;;7.10;4.65;;;;;;;;;;4999878;28;20053;-62
2022/07/23 04:01:12;;;;;;;7.13;3.92;;;;;;;;;;5021579;28;20107;-63
2022/07/23 04:03:40;;;;;;;7.82;4.60;;;;;;;;;;5024944;28;20107;-63
2022/07/23 04:06:08;;;;;;;7.45;4.80;;;;;;;;;;5020319;28;20776;-62
2022/07/23 04:08:35;;;;;;;8.35;4.10;;;;;;;;;;5021290;28;20057;-62
2022/07/23 04:11:02;;;;;;;6.22;4.72;;;;;;;;;;5010656;28;20448;-62
2022/07/23 04:13:29;;;;;;;5.82;3.85;;;;;;;;;;5001065;28;20120;-62
2022/07/23 04:15:58;;;;;;;9.25;4.72;;;;;;;;;;5006351;28;20045;-62
2022/07/23 04:18:25;;;;;;;7.45;4.57;;;;;;;;;;5020748;28;20523;-63
2022/07/23 04:20:53;;;;;;;8.73;4.50;;;;;;;;;;5004031;28;20089;-62
2022/07/23 04:23:20;;;;;;;7.88;4.50;;;;;;;;;;5022830;28;20053;-63
2022/07/23 04:25:47;;;;;;;6.75;4.25;;;;;;;;;;5023109;28;20057;-63
2022/07/23 04:28:14;;;;;;;7.10;4.55;;;;;;;;;;5021126;28;20518;-62
2022/07/23 04:30:42;;;;;;;7.95;4.78;;;;;;;;;;5021169;28;20624;-62
2022/07/23 04:33:10;;;;;;;6.53;4.30;;;;;;;;;;5020161;28;20111;-63
2022/07/23 04:35:37;;;;;;;9.38;4.40;;;;;;;;;;5020740;28;20054;-62
2022/07/23 04:38:05;;;;;;;9.40;4.60;;;;;;;;;;5004100;28;20572;-63
2022/07/23 04:40:32;;;;;;;8.95;4.53;;;;;;;;;;5018480;28;20405;-62
2022/07/23 04:43:00;;;;;;;7.88;4.00;;;;;;;;;;5018721;28;20664;-63
2022/07/23 04:45:27;;;;;;;8.95;4.90;;;;;;;;;;5019660;28;20054;-62
2022/07/23 04:47:55;;;;;;;8.20;3.50;;;;;;;;;;5018322;28;20053;-62
2022/07/23 04:50:24;;;;;;;6.68;3.70;;;;;;;;;;5019041;28;20088;-62
2022/07/23 04:52:51;;;;;;;10.43;4.13;;;;;;;;;;5000703;28;20096;-62
2022/07/23 04:55:18;;;;;;;7.20;3.85;;;;;;;;;;5018159;28;20050;-62
2022/07/23 04:57:45;;;;;;;6.47;3.78;;;;;;;;;;5014762;28;20575;-62
2022/07/23 05:00:13;;;;;;;7.70;3.70;;;;;;;;;;5014380;28;20058;-63
2022/07/23 05:02:40;;;;;;;8.90;3.92;;;;;;;;;;5021606;28;20441;-62
2022/07/23 05:05:08;;;;;;;7.93;3.75;;;;;;;;;;5017051;28;20053;-62
2022/07/23 05:07:36;;;;;;;7.15;3.50;;;;;;;;;;5021070;28;20064;-62
2022/07/23 05:10:04;;;;;;;7.28;3.10;;;;;;;;;;5017823;28;20057;-62
2022/07/23 05:12:32;;;;;;;6.45;3.13;;;;;;;;;;5024500;28;20045;-63
2022/07/23 05:14:59;;;;;;;4.80;2.75;;;;;;;;;;5021372;28;20059;-62
2022/07/23 05:17:27;;;;;;;4.35;2.85;;;;;;;;;;5020872;28;20057;-63
2022/07/23 05:19:54;;;;;;;6.53;2.17;;;;;;;;;;5025517;28;20131;-62
2022/07/23 05:22:21;;;;;;;7.00;2.10;;;;;;;;;;5022011;28;20049;-62
2022/07/23 05:24:50;;;;;;;7.55;2.42;;;;;;;;;;5021652;28;20485;-62
2022/07/23 05:27:17;;;;;;;4.60;2.10;;;;;;;;;;5020924;28;20144;-63
2022/07/23 05:29:44;;;;;;;4.88;2.13;;;;;;;;;;4999334;28;20053;-63
2022/07/23 05:32:11;;;;;;;5.22;2.10;;;;;;;;;;5027620;28;20066;-63
2022/07/23 05:34:38;;;;;;;4.72;2.20;;;;;;;;;;5024665;28;20045;-62
2022/07/23 05:37:06;;;;;;;4.95;2.20;;;;;;;;;;5026449;28;20747;-62
2022/07/23 05:39:33;;;;;;;7.57;2.30;;;;;;;;;;5017470;28;20041;-62
2022/07/23 05:42:02;;;;;;;6.68;2.10;;;;;;;;;;5016381;28;20042;-63
2022/07/23 05:44:29;;;;;;;7.38;2.30;;;;;;;;;;5022400;28;20045;-62
2022/07/23 05:46:56;;;;;;;8.55;2.10;;;;;;;;;;5005921;28;20053;-63
2022/07/23 05:49:23;;;;;;;6.88;2.25;;;;;;;;;;5003385;28;20053;-63
2022/07/23 05:51:50;;;;;;;7.32;1.90;;;;;;;;;;5021638;28;20049;-63
2022/07/23 05:54:18;;;;;;;2.88;1.63;;;;;;;;;;5024858;28;20045;-63
2022/07/23 05:56:45;;;;;;;7.95;1.70;;;;;;;;;;5022896;28;20041;-62
2022/07/23 05:59:14;;;;;;;3.40;1.50;;;;;;;;;;5008637;28;20053;-63
2022/07/23 06:01:41;;;;;;;4.18;1.40;;;;;;;;;;5011506;28;20084;-63
2022/07/23 06:04:09;;;;;;;3.85;1.23;;;;;;;;;;5020470;28;20037;-63
2022/07/23 06:06:36;;;;;;;3.97;1.30;;;;;;;;;;5003514;28;20091;-62
2022/07/23 06:09:03;;;;;;;3.28;1.00;;;;;;;;;;5023165;28;20046;-62
2022/07/23 06:11:30;;;;;;;3.50;0.80;;;;;;;;;;5002480;28;20052;-63
2022/07/23 06:13:58;;;;;;;4.07;0.98;;;;;;;;;;5022818;28;20057;-62
2022/07/23 06:16:26;;;;;;;2.70;0.70;;;;;;;;;;5026548;28;20045;-63
2022/07/23 06:18:53;;;;;;;2.63;0.70;;;;;;;;;;5017500;28;20045;-63
2022/07/23 06:21:21;;;;;;;5.15;1.00;;;;;;;;;;5005770;28;20058;-63
2022/07/23 06:23:48;;;;;;;2.60;0.80;;;;;;;;;;5019501;28;20164;-62
2022/07/23 06:26:15;;;;;;;1.48;0.70;;;;;;;;;;5017327;28;20053;-62
2022/07/23 06:28:42;;;;;;;4.05;0.50;;;;;;;;;;5018205;28;20045;-63
2022/07/23 06:31:09;;;;;;;4.47;0.60;;;;;;;;;;5023319;28;20103;-62
2022/07/23 06:33:38;;;;;;;2.35;0.55;;;;;;;;;;5004304;28;20049;-63
2022/07/23 06:36:05;;;;;;;2.17;0.50;;;;;;;;;;5022607;28;20116;-63
2022/07/23 06:38:32;;;;;;;1.83;0.50;;;;;;;;;;5006251;28;20057;-63
2022/07/23 06:41:00;;;;;;;1.15;0.52;;;;;;;;;;5024699;28;20056;-63
2022/07/23 06:43:27;;;;;;;1.17;0.40;;;;;;;;;;5019790;28;20068;-63
2022/07/23 06:45:54;;;;;;;4.78;0.60;;;;;;;;;;5018414;28;20045;-63
2022/07/23 06:48:22;;;;;;;3.78;0.50;;;;;;;;;;5019738;28;20583;-63
2022/07/23 06:50:52;;;;;;;2.72;0.50;;;;;;;;;;5023249;28;20058;-62
2022/07/23 06:53:19;;;;;;;2.35;0.50;;;;;;;;;;5024406;28;20059;-62
2022/07/23 06:55:46;;;;;;;1.58;0.60;;;;;;;;;;5006424;28;20158;-63
2022/07/23 06:58:14;;;;;;;5.15;0.50;;;;;;;;;;5025242;28;20057;-63
2022/07/23 07:00:41;;;;;;;2.30;0.60;;;;;;;;;;5018257;28;20049;-63
2022/07/23 07:03:08;;;;;;;1.45;0.38;;;;;;;;;;5020600;28;20060;-63
2022/07/23 07:05:36;;;;;;;3.30;0.50;;;;;;;;;;5020156;28;20050;-63
2022/07/23 07:08:04;;;;;;;5.35;0.80;;;;;;;;;;4997841;28;20499;-63
2022/07/23 07:10:31;;;;;;;4.75;0.60;;;;;;;;;;5015376;28;20065;-64
2022/07/23 07:12:59;;;;;;;2.70;0.50;;;;;;;;;;5022367;28;20056;-63
2022/07/23 07:15:26;;;;;;;0.95;0.40;;;;;;;;;;5014759;28;20057;-62
2022/07/23 07:17:53;;;;;;;5.28;0.55;;;;;;;;;;5022591;28;20078;-63
2022/07/23 07:20:20;;;;;;;2.08;0.40;;;;;;;;;;5021021;28;20045;-63
2022/07/23 07:22:48;;;;;;;1.55;0.52;;;;;;;;;;5016914;28;20046;-63
2022/07/23 07:25:16;;;;;;;2.10;0.60;;;;;;;;;;5013513;28;20076;-63
2022/07/23 07:27:44;;;;;;;5.88;0.50;;;;;;;;;;5018518;28;20401;-63
2022/07/23 07:30:12;;;;;;;3.05;0.57;;;;;;;;;;5017989;28;20125;-63
2022/07/23 07:32:39;;;;;;;3.45;0.73;;;;;;;;;;5004485;28;20534;-63
2022/07/23 07:35:07;;;;;;;2.55;0.70;;;;;;;;;;5025936;28;20096;-63
2022/07/23 07:37:34;;;;;;;1.17;0.57;;;;;;;;;;5022589;28;20508;-63
2022/07/23 07:40:01;;;;;;;2.15;0.68;;;;;;;;;;5023550;28;20049;-63
2022/07/23 07:42:32;;;;;;;2.83;0.50;;;;;;;;;;4997901;28;20053;-62
2022/07/23 07:44:59;;;;;;;1.42;0.50;;;;;;;;;;5014785;28;20054;-63
2022/07/23 07:47:26;;;;;;;2.40;0.70;;;;;;;;;;5020874;28;20095;-63
2022/07/23 07:49:53;;;;;;;4.82;0.75;;;;;;;;;;5022032;28;20115;-63
2022/07/23 07:52:20;;;;;;;4.05;0.70;;;;;;;;;;5023032;28;20053;-63
2022/07/23 07:54:48;;;;;;;4.32;0.60;;;;;;;;;;5026184;28;20056;-63
2022/07/23 07:57:15;;;;;;;2.88;0.60;;;;;;;;;;5014376;28;20052;-63
2022/07/23 07:59:43;;;;;;;3.38;0.70;;;;;;;;;;4999689;28;20113;-63
2022/07/23 08:02:11;;;;;;;2.28;0.47;;;;;;;;;;5017088;28;20572;-63
2022/07/23 08:04:38;;;;;;;1.95;0.57;;;;;;;;;;5007562;28;20057;-63
2022/07/23 08:07:05;;;;;;;1.55;0.60;;;;;;;;;;5017413;28;20037;-63
2022/07/23 08:09:32;;;;;;;6.03;0.93;;;;;;;;;;4997879;28;20057;-63
2022/07/23 08:12:00;;;;;;;3.13;0.50;;;;;;;;;;5018503;28;20052;-63
2022/07/23 08:14:27;;;;;;;1.80;0.60;;;;;;;;;;4999928;28;20333;-63
2022/07/23 08:16:55;;;;;;;9.13;0.68;;;;;;;;;;5022795;28;20079;-63
2022/07/23 08:19:23;;;;;;;6.03;0.80;;;;;;;;;;5006925;28;20115;-63
2022/07/23 08:21:50;;;;;;;2.95;0.60;;;;;;;;;;5015069;28;20085;-63
2022/07/23 08:24:17;;;;;;;2.10;0.75;;;;;;;;;;5016487;28;20068;-63
2022/07/23 08:26:44;;;;;;;3.92;0.80;;;;;;;;;;5020421;28;20119;-63
2022/07/23 08:29:12;;;;;;;3.35;0.60;;;;;;;;;;5020206;28;20054;-63
2022/07/23 08:31:40;;;;;;;1.98;0.70;;;;;;;;;;5010037;28;20084;-63
2022/07/23 08:34:08;;;;;;;2.78;0.70;;;;;;;;;;5024892;28;20128;-63
2022/07/23 08:36:36;;;;;;;5.35;0.90;;;;;;;;;;5026681;28;20091;-63
2022/07/23 08:39:04;;;;;;;5.38;1.10;;;;;;;;;;5025054;28;20050;-63
2022/07/23 08:41:31;;;;;;;2.08;0.75;;;;;;;;;;5024660;28;20045;-63
2022/07/23 08:44:00;;;;;;;1.95;0.77;;;;;;;;;;5009648;28;20057;-64
2022/07/23 08:46:28;;;;;;;4.05;0.70;;;;;;;;;;5024281;28;20080;-63
2022/07/23 08:48:56;;;;;;;1.05;0.57;;;;;;;;;;5024897;28;20060;-63
2022/07/23 08:51:27;;;;;;;3.33;0.93;;;;;;;;;;5024089;28;20052;-63
2022/07/23 08:53:54;;;;;;;2.15;0.70;;;;;;;;;;5021190;28;20064;-63
2022/07/23 08:56:21;;;;;;;1.10;0.57;;;;;;;;;;5021436;28;20086;-63
2022/07/23 08:58:48;;;;;;;3.15;0.80;;;;;;;;;;5024040;28;20045;-63
2022/07/23 09:01:16;;;;;;;3.95;0.70;;;;;;;;;;5022333;28;20053;-63
2022/07/23 09:03:44;;;;;;;4.80;0.90;;;;;;;;;;5023741;28;20045;-63
2022/07/23 09:06:12;;;;;;;3.63;0.98;;;;;;;;;;5006693;28;20053;-63
2022/07/23 09:08:41;;;;;;;1.88;0.85;;;;;;;;;;5022575;28;20057;-63
2022/07/23 09:11:09;;;;;;;3.70;0.90;;;;;;;;;;5024961;28;20135;-63
2022/07/23 09:13:38;;;;;;;2.67;0.70;;;;;;;;;;5024542;28;20050;-63
2022/07/23 09:16:07;;;;;;;1.55;0.70;;;;;;;;;;5020584;28;20077;-63
2022/07/23 09:18:38;;;;;;;0.95;0.68;;;;;;;;;;5019009;28;20045;-63
2022/07/23 09:21:12;;;;;;;2.67;0.80;;;;;;;;;;5025050;28;20136;-63
2022/07/23 09:23:42;;;;;;;3.35;0.90;;;;;;;;;;5021220;28;20057;-63
2022/07/23 09:26:19;;;;;;;1.27;0.60;;;;;;;;;;5020725;28;20045;-63
2022/07/23 09:28:52;;;;;;;3.70;0.77;;;;;;;;;;5017919;28;20053;-63
2022/07/23 09:31:19;;;;;;;2.05;0.77;;;;;;;;;;5006114;28;20062;-63
2022/07/23 09:33:46;;;;;;;1.90;0.68;;;;;;;;;;5017373;28;20049;-63
2022/07/23 09:36:14;;;;;;;3.33;0.90;;;;;;;;;;5027352;28;20791;-63
2022/07/23 09:38:50;;;;;;;2.25;0.70;;;;;;;;;;5016168;28;20085;-63
2022/07/23 09:41:18;;;;;;;2.05;0.68;;;;;;;;;;5001454;28;20068;-63
2022/07/23 09:43:45;;;;;;;1.88;0.70;;;;;;;;;;5001016;28;20049;-63
2022/07/23 09:46:23;;;;;;;3.70;0.70;;;;;;;;;;5018859;28;20140;-63
2022/07/23 09:48:52;;;;;;;1.85;0.55;;;;;;;;;;5018836;28;20054;-63
2022/07/23 09:51:23;;;;;;;2.75;0.60;;;;;;;;;;5013643;28;20065;-63
2022/07/23 09:53:51;;;;;;;3.78;0.77;;;;;;;;;;5017585;28;20049;-63
2022/07/23 09:56:19;;;;;;;1.33;0.60;;;;;;;;;;5020217;28;20057;-63
2022/07/23 09:58:48;;;;;;;3.35;0.60;;;;;;;;;;5020717;28;20049;-63
2022/07/23 10:01:16;;;;;;;2.13;0.70;;;;;;;;;;5027229;28;20135;-63
2022/07/23 10:03:43;;;;;;;4.40;0.90;;;;;;;;;;5015002;28;20049;-64
2022/07/23 10:06:11;;;;;;;2.47;0.70;;;;;;;;;;5021462;28;20404;-63
2022/07/23 10:08:41;;;;;;;5.50;0.80;;;;;;;;;;5003948;28;20054;-64
2022/07/23 10:11:09;;;;;;;1.50;0.68;;;;;;;;;;5008564;28;20054;-63
2022/07/23 10:13:52;;;;;;;1.25;0.60;;;;;;;;;;5023952;28;20056;-63
2022/07/23 10:16:20;;;;;;;3.38;0.73;;;;;;;;;;5017019;28;20041;-63
2022/07/23 10:18:48;;;;;;;3.92;0.93;;;;;;;;;;5017354;28;20053;-63
2022/07/23 10:21:20;;;;;;;1.95;0.60;;;;;;;;;;5020703;28;20054;-63
2022/07/23 10:23:49;;;;;;;2.03;0.80;;;;;;;;;;5023349;28;20053;-63
2022/07/23 10:26:21;;;;;;;1.75;0.50;;;;;;;;;;5023351;28;20045;-63
2022/07/23 10:28:58;;;;;;;2.92;0.70;;;;;;;;;;5018829;28;20111;-63
2022/07/23 10:31:30;;;;;;;3.08;0.70;;;;;;;;;;5023101;28;20042;-63
2022/07/23 10:34:01;;;;;;;3.05;0.75;;;;;;;;;;5027312;28;20053;-63
2022/07/23 10:36:31;;;;;;;3.90;0.70;;;;;;;;;;5008921;28;20464;-63
2022/07/23 10:39:00;;;;;;;1.27;0.57;;;;;;;;;;5017744;28;20505;-63
2022/07/23 10:41:35;;;;;;;2.53;0.70;;;;;;;;;;5020984;28;20456;-64
2022/07/23 10:44:10;;;;;;;1.55;0.60;;;;;;;;;;5025439;28;20045;-63
2022/07/23 10:46:44;;;;;;;3.67;0.70;;;;;;;;;;5020271;28;20041;-64
2022/07/23 10:49:29;;;;;;;3.25;0.77;;;;;;;;;;5003616;28;20137;-64
2022/07/23 10:52:15;;;;;;;1.42;0.50;;;;;;;;;;5016401;28;20064;-63
2022/07/23 10:54:42;;;;;;;2.63;0.82;;;;;;;;;;5018628;28;20444;-64
2022/07/23 10:57:12;;;;;;;3.72;0.80;;;;;;;;;;5019560;28;20076;-63
2022/07/23 10:59:57;;;;;;;1.42;0.60;;;;;;;;;;5020115;28;20057;-64
2022/07/23 11:02:26;;;;;;;1.88;0.65;;;;;;;;;;5021467;28;20046;-63
2022/07/23 11:04:53;;;;;;;2.75;0.77;;;;;;;;;;5019198;28;20053;-63
2022/07/23 11:07:21;;;;;;;1.80;0.60;;;;;;;;;;5022171;28;20068;-63
2022/07/23 11:09:48;;;;;;;1.52;0.57;;;;;;;;;;5019497;28;20073;-63
2022/07/23 11:12:36;;;;;;;2.30;0.80;;;;;;;;;;5017055;28;20107;-64
2022/07/23 11:15:05;;;;;;;3.88;0.80;;;;;;;;;;5018538;28;20493;-64
2022/07/23 11:17:33;;;;;;;2.95;0.85;;;;;;;;;;5021970;28;20053;-64
2022/07/23 11:20:19;;;;;;;1.90;0.85;;;;;;;;;;4999428;28;20493;-64
2022/07/23 11:22:51;;;;;;;2.70;0.95;;;;;;;;;;5016161;28;20054;-64
2022/07/23 11:25:32;;;;;;;2.47;0.77;;;;;;;;;;5021460;28;20107;-64
2022/07/23 11:28:10;;;;;;;2.90;0.80;;;;;;;;;;4999811;28;20076;-64
2022/07/23 11:30:42;;;;;;;2.08;0.80;;;;;;;;;;5019699;28;20049;-64
2022/07/23 11:33:19;;;;;;;1.85;0.70;;;;;;;;;;5022195;28;20298;-64
2022/07/23 11:35:47;;;;;;;1.98;0.82;;;;;;;;;;5020646;28;20119;-65
2022/07/23 11:38:15;;;;;;;4.68;0.70;;;;;;;;;;5015313;28;20669;-64
2022/07/23 11:40:43;;;;;;;3.53;0.80;;;;;;;;;;5010066;28;20053;-64
2022/07/23 11:43:12;;;;;;;2.78;0.60;;;;;;;;;;5014678;28;20084;-64
2022/07/23 11:45:40;;;;;;;1.88;0.88;;;;;;;;;;5024724;28;20763;-64
2022/07/23 11:48:08;;;;;;;3.40;0.80;;;;;;;;;;5006754;28;20128;-64
2022/07/23 11:50:35;;;;;;;2.63;1.10;;;;;;;;;;5022271;28;20046;-65
2022/07/23 11:53:03;;;;;;;2.20;0.80;;;;;;;;;;5002303;28;20061;-64
2022/07/23 11:55:30;;;;;;;2.30;0.90;;;;;;;;;;5022912;28;20064;-65
2022/07/23 11:57:58;;;;;;;2.45;0.85;;;;;;;;;;5001551;28;20062;-65
2022/07/23 12:00:30;;;;;;;1.67;0.77;;;;;;;;;;5006396;28;20532;-65
2022/07/23 12:03:00;;;;;;;1.38;0.80;;;;;;;;;;5017543;28;20573;-64
2022/07/23 12:05:28;;;;;;;2.28;0.90;;;;;;;;;;5021769;28;20910;-64
2022/07/23 12:07:56;;;;;;;1.13;0.77;;;;;;;;;;5015362;28;20049;-64
2022/07/23 12:10:24;;;;;;;1.88;0.90;;;;;;;;;;5020641;28;20554;-64
2022/07/23 12:12:53;;;;;;;3.10;0.82;;;;;;;;;;5025119;28;20115;-64
2022/07/23 12:15:22;;;;;;;2.78;1.10;;;;;;;;;;5024595;28;20049;-65
2022/07/23 12:17:51;;;;;;;2.08;0.95;;;;;;;;;;5016040;28;20059;-64
2022/07/23 12:20:20;;;;;;;3.35;1.08;;;;;;;;;;5019201;28;20053;-64
2022/07/23 12:22:48;;;;;;;1.67;0.80;;;;;;;;;;5017438;28;20452;-64
2022/07/23 12:25:17;;;;;;;3.38;1.08;;;;;;;;;;4999045;28;20141;-65
2022/07/23 12:27:44;;;;;;;2.10;0.82;;;;;;;;;;5017282;28;20053;-64
2022/07/23 12:30:22;;;;;;;2.45;0.90;;;;;;;;;;5018183;28;20044;-65
2022/07/23 12:32:51;;;;;;;4.20;1.00;;;;;;;;;;5016988;28;20111;-64
2022/07/23 12:35:19;;;;;;;2.05;0.90;;;;;;;;;;5019432;28;20095;-64
2022/07/23 12:37:47;;;;;;;1.33;0.90;;;;;;;;;;5022755;28;20049;-65
2022/07/23 12:40:21;;;;;;;2.78;1.02;;;;;;;;;;5020715;28;20041;-64
2022/07/23 12:42:48;;;;;;;2.70;0.90;;;;;;;;;;5022191;28;20061;-65
2022/07/23 12:45:16;;;;;;;2.80;1.02;;;;;;;;;;5021545;28;20057;-64
2022/07/23 12:48:03;;;;;;;3.92;1.10;;;;;;;;;;5021005;28;21221;-64
2022/07/23 12:50:34;;;;;;;2.60;0.80;;;;;;;;;;5023587;28;20467;-65
2022/07/23 12:53:12;;;;;;;4.38;1.63;;;;;;;;;;5021620;28;20053;-65
2022/07/23 12:55:40;;;;;;;7.10;1.92;;;;;;;;;;5015515;28;20053;-65
2022/07/23 12:58:12;;;;;;;2.78;1.40;;;;;;;;;;5003999;28;20509;-65
2022/07/23 13:00:59;;;;;;;2.97;1.23;;;;;;;;;;5020317;28;20481;-65
2022/07/23 13:03:29;;;;;;;4.35;1.30;;;;;;;;;;5015087;28;20050;-65
2022/07/23 13:05:56;;;;;;;1.90;1.20;;;;;;;;;;5014510;28;20076;-65
2022/07/23 13:08:26;;;;;;;3.65;1.10;;;;;;;;;;5001750;28;20661;-65
2022/07/23 13:10:53;;;;;;;4.80;1.40;;;;;;;;;;5014528;28;20061;-65
2022/07/23 13:13:24;;;;;;;3.92;1.30;;;;;;;;;;5021156;28;20092;-65
2022/07/23 13:15:51;;;;;;;3.05;1.10;;;;;;;;;;5028023;28;20583;-65
2022/07/23 13:18:19;;;;;;;2.70;0.98;;;;;;;;;;5022708;28;20042;-65
2022/07/23 13:20:48;;;;;;;4.85;1.40;;;;;;;;;;5017454;28;20540;-65
2022/07/23 13:23:16;;;;;;;4.82;1.23;;;;;;;;;;5025185;28;20075;-65
2022/07/23 13:25:43;;;;;;;2.42;1.10;;;;;;;;;;5022268;28;20665;-64
2022/07/23 13:28:10;;;;;;;2.60;1.30;;;;;;;;;;5023211;28;20048;-65
2022/07/23 13:30:37;;;;;;;2.38;1.30;;;;;;;;;;5015775;28;20492;-65
2022/07/23 13:33:05;;;;;;;2.90;1.20;;;;;;;;;;5018860;28;20053;-65
2022/07/23 13:35:33;;;;;;;4.20;1.38;;;;;;;;;;5020341;28;20060;-65
2022/07/23 13:38:01;;;;;;;2.63;1.35;;;;;;;;;;4997039;28;20061;-65
2022/07/23 13:40:28;;;;;;;3.55;1.80;;;;;;;;;;5017119;28;20439;-65
2022/07/23 13:42:56;;;;;;;3.17;1.40;;;;;;;;;;5022304;28;20056;-66
2022/07/23 13:45:23;;;;;;;2.67;1.23;;;;;;;;;;5018612;28;20053;-66
2022/07/23 13:47:50;;;;;;;2.65;1.50;;;;;;;;;;5014783;28;20049;-65
2022/07/23 13:50:17;;;;;;;3.38;1.77;;;;;;;;;;5020524;28;20054;-65
2022/07/23 13:52:45;;;;;;;3.53;1.50;;;;;;;;;;5008030;28;20050;-65
2022/07/23 13:55:13;;;;;;;2.88;1.45;;;;;;;;;;5027819;28;20545;-66
2022/07/23 13:57:40;;;;;;;2.65;1.58;;;;;;;;;;5013452;28;20745;-65
2022/07/23 14:00:09;;;;;;;2.60;1.20;;;;;;;;;;5023072;28;20041;-65
2022/07/23 14:02:37;;;;;;;3.15;1.60;;;;;;;;;;5026326;28;20548;-65
2022/07/23 14:05:05;;;;;;;2.97;1.52;;;;;;;;;;5018091;28;20060;-66
2022/07/23 14:07:32;;;;;;;1.88;1.38;;;;;;;;;;5018169;28;20377;-66
2022/07/23 14:10:00;;;;;;;3.42;1.30;;;;;;;;;;5023291;28;20058;-65
2022/07/23 14:12:28;;;;;;;2.65;1.65;;;;;;;;;;5022656;28;20046;-66
2022/07/23 14:14:55;;;;;;;4.07;1.80;;;;;;;;;;5020942;28;20049;-66
2022/07/23 14:17:23;;;;;;;3.65;1.65;;;;;;;;;;5002869;28;20054;-65
2022/07/23 14:19:50;;;;;;;4.22;1.80;;;;;;;;;;5021944;28;20056;-65
2022/07/23 14:22:17;;;;;;;3.25;1.92;;;;;;;;;;5022205;28;20093;-66
2022/07/23 14:24:44;;;;;;;4.43;1.85;;;;;;;;;;5022490;28;20096;-65
2022/07/23 14:27:12;;;;;;;4.80;1.98;;;;;;;;;;5022434;28;20253;-66
2022/07/23 14:29:40;;;;;;;3.22;1.90;;;;;;;;;;5016451;28;20041;-65
2022/07/23 14:32:08;;;;;;;7.70;2.08;;;;;;;;;;5003289;28;20056;-65
2022/07/23 14:34:35;;;;;;;4.07;1.65;;;;;;;;;;5002473;28;20107;-66
2022/07/23 14:37:02;;;;;;;3.25;1.88;;;;;;;;;;5026306;28;20602;-65
2022/07/23 14:39:30;;;;;;;3.65;1.67;;;;;;;;;;5021575;28;20057;-66
2022/07/23 14:41:57;;;;;;;4.05;1.83;;;;;;;;;;5020121;28;20108;-66
2022/07/23 14:44:24;;;;;;;7.28;1.70;;;;;;;;;;5017895;28;20046;-66
2022/07/23 14:46:54;;;;;;;4.05;1.52;;;;;;;;;;5023085;28;20049;-66